Time;durP1;ratioP1;P1;durP2;ratioP2;P2;SDS_P1;SDS_P2;PMS_P1;PMS_P2;Temp;Humidity;BMP_temperature;BMP_pressure;BME280_temperature;BME280_humidity;BME280_pressure;Samples;Min_cycle;Max_cycle;Signal;HPM_P1;HPM_P2
2023/12/25 00:00:11;;;;;;;0.40;0.40;;;;;;;6.25;95.39;94468.66;5050973;28;20207;-83
2023/12/25 00:02:38;;;;;;;0.30;0.30;;;;;;;5.81;96.85;94468.53;5051023;28;20211;-82
2023/12/25 00:05:05;;;;;;;1.25;0.82;;;;;;;6.17;97.27;94468.56;5050512;28;20668;-83
2023/12/25 00:07:32;;;;;;;0.80;0.80;;;;;;;6.26;97.00;94467.56;5050819;28;20214;-84
2023/12/25 00:10:00;;;;;;;0.30;0.30;;;;;;;6.34;96.30;94469.53;5050259;28;20208;-83
2023/12/25 00:12:27;;;;;;;4.85;1.38;;;;;;;6.31;96.70;94445.91;5051127;28;20599;-83
2023/12/25 00:14:54;;;;;;;0.52;0.52;;;;;;;6.17;95.98;94449.75;5050405;28;20208;-84
2023/12/25 00:17:21;;;;;;;0.40;0.40;;;;;;;6.27;96.11;94453.03;5050929;28;20214;-83
2023/12/25 00:19:48;;;;;;;4.18;2.50;;;;;;;5.99;96.16;94452.31;5050379;28;20207;-84
2023/12/25 00:22:14;;;;;;;4.15;2.50;;;;;;;5.81;97.09;94457.78;5050743;28;20567;-83
2023/12/25 00:24:41;;;;;;;0.30;0.30;;;;;;;5.75;97.75;94448.22;5050041;28;20211;-83
2023/12/25 00:27:10;;;;;;;0.50;0.50;;;;;;;5.59;97.39;94450.47;5050765;28;20208;-84
2023/12/25 00:29:36;;;;;;;1.95;0.95;;;;;;;5.78;98.76;94447.63;5050454;28;20208;-83
2023/12/25 00:32:04;;;;;;;0.57;0.57;;;;;;;5.80;98.75;94440.88;5050530;28;20330;-83
2023/12/25 00:34:31;;;;;;;0.30;0.30;;;;;;;5.86;98.54;94436.97;5050256;28;20211;-82
2023/12/25 00:36:57;;;;;;;0.60;0.60;;;;;;;5.85;98.27;94453.41;5050147;28;20251;-83
2023/12/25 00:39:24;;;;;;;0.20;0.20;;;;;;;5.79;98.27;94438.47;5050094;28;20215;-83
2023/12/25 00:41:51;;;;;;;0.50;0.50;;;;;;;5.78;98.05;94436.88;5050721;28;20215;-82
2023/12/25 00:44:19;;;;;;;0.55;0.50;;;;;;;5.79;97.60;94428.53;5050339;28;20212;-83
2023/12/25 00:46:46;;;;;;;0.73;0.73;;;;;;;5.70;97.13;94443.78;5050228;28;20204;-83
2023/12/25 00:49:14;;;;;;;0.57;0.57;;;;;;;5.76;98.45;94460.56;5050156;28;20660;-83
2023/12/25 00:51:40;;;;;;;0.20;0.20;;;;;;;5.74;97.18;94433.22;5051035;28;20231;-80
2023/12/25 00:54:07;;;;;;;0.65;0.65;;;;;;;5.50;98.14;94453.03;5050276;28;20567;-82
2023/12/25 00:56:34;;;;;;;0.20;0.20;;;;;;;5.47;98.95;94450.94;5049657;28;20196;-82
2023/12/25 00:59:01;;;;;;;0.20;0.20;;;;;;;5.56;99.62;94457.22;5051589;28;20212;-82
2023/12/25 01:01:29;;;;;;;0.20;0.20;;;;;;;5.63;98.82;94465.66;5053910;28;20215;-83
2023/12/25 01:03:56;;;;;;;0.28;0.28;;;;;;;5.33;99.80;94463.56;5053518;28;20222;-83
2023/12/25 01:06:23;;;;;;;0.85;0.85;;;;;;;5.44;99.77;94445.41;5054251;28;20544;-82
2023/12/25 01:08:49;;;;;;;0.30;0.30;;;;;;;5.45;99.12;94452.38;5053520;28;20214;-83
2023/12/25 01:11:16;;;;;;;0.57;0.57;;;;;;;5.50;100.00;94460.31;5053791;28;20611;-83
2023/12/25 01:13:43;;;;;;;0.40;0.40;;;;;;;5.42;100.00;94440.31;5053686;28;20216;-83
2023/12/25 01:16:11;;;;;;;1.80;0.68;;;;;;;5.30;100.00;94461.50;5054025;28;20207;-83
2023/12/25 01:18:39;;;;;;;0.20;0.20;;;;;;;5.35;99.70;94450.66;5053588;28;20653;-84
2023/12/25 01:21:06;;;;;;;0.20;0.20;;;;;;;5.34;100.00;94454.44;5053686;28;20253;-83
2023/12/25 01:23:33;;;;;;;6.35;2.63;;;;;;;5.29;100.00;94436.56;5053450;28;20212;-83
2023/12/25 01:26:00;;;;;;;5.38;2.22;;;;;;;5.49;100.00;94438.00;5053384;28;20211;-83
2023/12/25 01:28:26;;;;;;;4.20;2.30;;;;;;;5.53;100.00;94425.59;5053113;28;20207;-84
2023/12/25 01:30:53;;;;;;;5.28;2.05;;;;;;;5.62;100.00;94444.47;5053105;28;20580;-83
2023/12/25 01:33:20;;;;;;;0.20;0.20;;;;;;;5.72;99.31;94434.31;5053440;28;20204;-83
2023/12/25 01:35:48;;;;;;;0.40;0.40;;;;;;;5.74;99.48;94438.59;5053508;28;20553;-83
2023/12/25 01:38:15;;;;;;;1.10;0.98;;;;;;;5.83;99.81;94431.41;5052950;28;20214;-84
2023/12/25 01:40:44;;;;;;;0.20;0.20;;;;;;;5.87;98.69;94429.72;5052589;28;20211;-83
2023/12/25 01:43:11;;;;;;;0.57;0.57;;;;;;;6.04;97.02;94419.91;5053208;28;20212;-83
2023/12/25 01:45:38;;;;;;;0.20;0.20;;;;;;;5.96;98.14;94428.72;5052957;28;20223;-83
2023/12/25 01:48:07;;;;;;;0.50;0.50;;;;;;;5.99;97.03;94416.56;5052979;28;20642;-84
2023/12/25 01:50:34;;;;;;;0.40;0.40;;;;;;;6.01;97.15;94438.56;5053400;28;20557;-83
2023/12/25 01:53:02;;;;;;;0.52;0.52;;;;;;;6.02;97.22;94438.25;5052838;28;20225;-83
2023/12/25 01:55:29;;;;;;;0.20;0.20;;;;;;;5.93;96.69;94439.28;5053237;28;20538;-83
2023/12/25 01:57:56;;;;;;;0.20;0.20;;;;;;;5.84;96.90;94431.09;5052934;28;20203;-84
2023/12/25 02:00:23;;;;;;;0.20;0.20;;;;;;;5.97;96.82;94429.50;5052953;28;20207;-82
2023/12/25 02:02:50;;;;;;;2.38;1.60;;;;;;;5.96;97.40;94438.66;5052325;28;20208;-83
2023/12/25 02:05:18;;;;;;;3.55;2.15;;;;;;;6.01;96.24;94435.88;5052904;28;20222;-83
2023/12/25 02:07:47;;;;;;;0.45;0.45;;;;;;;5.99;95.70;94448.81;5052860;28;20204;-84
2023/12/25 02:10:27;;;;;;;0.20;0.20;;;;;;;6.08;95.71;94438.94;5038954;28;20560;-82
2023/12/25 02:12:54;;;;;;;0.20;0.20;;;;;;;6.06;95.63;94449.19;5052581;28;20208;-83
2023/12/25 02:15:21;;;;;;;0.75;0.75;;;;;;;5.91;96.15;94446.84;5052563;28;20207;-83
2023/12/25 02:17:48;;;;;;;0.25;0.25;;;;;;;5.89;96.19;94446.34;5052717;28;20573;-81
2023/12/25 02:20:18;;;;;;;0.20;0.20;;;;;;;5.85;96.38;94438.06;5052955;28;20574;-83
2023/12/25 02:22:45;;;;;;;0.20;0.20;;;;;;;5.80;97.07;94440.06;5052466;28;20623;-82
2023/12/25 02:25:25;;;;;;;2.42;1.30;;;;;;;5.85;96.39;94431.91;5052583;28;20211;-83
2023/12/25 02:27:53;;;;;;;2.90;1.50;;;;;;;5.88;96.56;94442.03;5052326;28;20204;-83
2023/12/25 02:30:20;;;;;;;5.03;2.28;;;;;;;5.56;97.14;94421.50;5052271;28;20606;-84
2023/12/25 02:32:47;;;;;;;3.58;1.60;;;;;;;5.74;97.07;94436.69;5052649;28;20579;-83
2023/12/25 02:35:14;;;;;;;5.07;1.73;;;;;;;5.59;97.16;94445.88;5052293;28;20211;-83
2023/12/25 02:37:41;;;;;;;2.92;1.80;;;;;;;5.49;97.56;94424.59;5052048;28;20207;-83
2023/12/25 02:40:09;;;;;;;0.30;0.30;;;;;;;5.67;97.55;94442.47;5051884;28;20210;-83
2023/12/25 02:42:36;;;;;;;0.88;0.52;;;;;;;5.66;96.99;94430.13;5051857;28;20536;-84
2023/12/25 02:45:05;;;;;;;0.20;0.20;;;;;;;5.74;96.70;94415.19;5051916;28;20620;-83
2023/12/25 02:47:32;;;;;;;0.20;0.20;;;;;;;5.66;96.68;94411.31;5051870;28;20203;-83
2023/12/25 02:49:58;;;;;;;0.22;0.22;;;;;;;5.72;96.17;94430.84;5051706;28;20208;-84
2023/12/25 02:52:25;;;;;;;0.20;0.20;;;;;;;5.79;96.41;94439.28;5051717;28;20582;-83
2023/12/25 02:54:52;;;;;;;0.63;0.63;;;;;;;5.70;96.00;94419.59;5052430;28;20222;-84
2023/12/25 02:57:19;;;;;;;0.35;0.35;;;;;;;5.72;96.62;94450.44;5051417;28;20592;-84
2023/12/25 02:59:46;;;;;;;0.30;0.30;;;;;;;5.56;97.81;94445.69;5051283;28;20215;-83
2023/12/25 03:02:14;;;;;;;0.20;0.20;;;;;;;5.48;97.80;94444.47;5051693;28;20203;-83
2023/12/25 03:04:41;;;;;;;0.20;0.20;;;;;;;5.39;97.86;94446.28;5051225;28;20207;-84
2023/12/25 03:07:07;;;;;;;0.55;0.55;;;;;;;5.46;98.61;94460.13;5051372;28;20624;-84
2023/12/25 03:09:35;;;;;;;0.20;0.20;;;;;;;5.53;98.58;94447.06;5051261;28;20215;-82
2023/12/25 03:12:02;;;;;;;0.20;0.20;;;;;;;5.61;97.69;94449.03;5051343;28;20223;-83
2023/12/25 03:14:31;;;;;;;0.30;0.30;;;;;;;5.69;98.97;94451.03;5051725;28;20211;-83
2023/12/25 03:16:57;;;;;;;0.20;0.20;;;;;;;5.48;98.14;94460.59;5051429;28;20222;-84
2023/12/25 03:19:25;;;;;;;1.42;0.38;;;;;;;5.56;98.19;94451.06;5051451;28;20399;-84
2023/12/25 03:21:52;;;;;;;0.22;0.22;;;;;;;5.22;98.37;94472.94;5051055;28;20211;-83
2023/12/25 03:24:19;;;;;;;0.50;0.50;;;;;;;5.20;99.46;94464.38;5051760;28;20207;-83
2023/12/25 03:26:47;;;;;;;0.20;0.20;;;;;;;5.27;98.83;94481.69;5051651;28;20207;-83
2023/12/25 03:29:13;;;;;;;0.30;0.30;;;;;;;5.49;98.32;94477.50;5051358;28;20200;-83
2023/12/25 03:31:40;;;;;;;0.47;0.47;;;;;;;5.48;97.76;94468.66;5051341;28;20254;-84
2023/12/25 03:34:07;;;;;;;0.30;0.30;;;;;;;5.46;97.36;94478.94;5051335;28;20200;-84
2023/12/25 03:36:35;;;;;;;0.35;0.35;;;;;;;5.38;98.74;94468.06;5051285;28;20226;-83
2023/12/25 03:39:03;;;;;;;0.30;0.30;;;;;;;5.30;97.83;94480.31;5051252;28;20219;-83
2023/12/25 03:41:30;;;;;;;0.43;0.40;;;;;;;5.25;98.69;94491.13;5051110;28;20204;-83
2023/12/25 03:43:57;;;;;;;1.23;1.05;;;;;;;5.31;98.69;94487.28;5050967;28;20269;-83
2023/12/25 03:46:24;;;;;;;0.20;0.20;;;;;;;5.25;98.55;94485.78;5051332;28;20208;-84
2023/12/25 03:48:51;;;;;;;0.20;0.20;;;;;;;5.35;98.02;94494.41;5050694;28;20203;-83
2023/12/25 03:51:17;;;;;;;1.13;1.00;;;;;;;5.51;97.37;94492.25;5051193;28;20266;-83
2023/12/25 03:53:46;;;;;;;2.80;1.70;;;;;;;5.47;97.04;94501.97;5051424;28;20212;-84
2023/12/25 03:56:16;;;;;;;3.20;1.30;;;;;;;5.52;97.02;94512.63;5050777;28;20207;-83
2023/12/25 03:58:43;;;;;;;2.33;1.33;;;;;;;5.57;96.85;94507.19;5050776;28;20196;-83
2023/12/25 04:01:10;;;;;;;2.22;1.45;;;;;;;5.55;96.95;94493.25;5050884;28;20238;-83
2023/12/25 04:03:37;;;;;;;5.30;1.27;;;;;;;5.63;96.60;94502.47;5051059;28;20208;-83
2023/12/25 04:06:04;;;;;;;0.30;0.30;;;;;;;5.61;96.71;94500.09;5050545;28;20231;-80
2023/12/25 04:08:31;;;;;;;0.30;0.30;;;;;;;5.60;96.12;94511.94;5050683;28;20242;-83
2023/12/25 04:10:59;;;;;;;0.20;0.20;;;;;;;5.59;96.58;94515.75;5050571;28;20360;-83
2023/12/25 04:13:26;;;;;;;0.20;0.20;;;;;;;5.57;96.26;94522.50;5051072;28;20710;-84
2023/12/25 04:15:53;;;;;;;0.20;0.20;;;;;;;5.59;96.52;94501.50;5050099;28;20199;-83
2023/12/25 04:18:19;;;;;;;0.20;0.20;;;;;;;5.50;96.51;94517.50;5050532;28;20207;-84
2023/12/25 04:20:46;;;;;;;0.20;0.20;;;;;;;5.48;96.91;94503.56;5050753;28;20204;-82
2023/12/25 04:23:14;;;;;;;0.30;0.30;;;;;;;5.46;97.25;94526.47;5050872;28;20288;-84
2023/12/25 04:25:41;;;;;;;0.30;0.30;;;;;;;5.43;97.20;94516.31;5050545;28;20212;-84
2023/12/25 04:28:08;;;;;;;0.20;0.20;;;;;;;5.36;97.92;94511.34;5050329;28;20269;-83
2023/12/25 04:30:34;;;;;;;0.20;0.20;;;;;;;5.48;97.93;94495.53;5050344;28;20661;-84
2023/12/25 04:33:02;;;;;;;0.30;0.30;;;;;;;5.29;98.14;94497.53;5050065;28;20246;-84
2023/12/25 04:35:29;;;;;;;0.30;0.30;;;;;;;5.13;98.48;94506.94;5053956;28;20200;-84
2023/12/25 04:37:55;;;;;;;0.20;0.20;;;;;;;5.31;98.89;94506.06;5054745;28;20581;-84
2023/12/25 04:40:22;;;;;;;0.90;0.90;;;;;;;5.33;98.15;94490.44;5054349;28;20211;-82
2023/12/25 04:42:49;;;;;;;0.20;0.20;;;;;;;5.39;98.51;94504.56;5054181;28;20219;-84
2023/12/25 04:45:18;;;;;;;0.20;0.20;;;;;;;5.47;97.36;94504.66;5054577;28;20670;-84
2023/12/25 04:47:44;;;;;;;0.13;0.13;;;;;;;5.32;97.42;94511.16;5054524;28;20550;-84
2023/12/25 04:50:10;;;;;;;0.20;0.20;;;;;;;5.29;97.72;94505.56;5053893;28;20211;-83
2023/12/25 04:52:37;;;;;;;0.20;0.20;;;;;;;5.24;98.08;94508.34;5054320;28;20250;-82
2023/12/25 04:55:04;;;;;;;0.30;0.30;;;;;;;5.16;98.07;94527.84;5053741;28;20212;-80
2023/12/25 04:57:31;;;;;;;0.22;0.22;;;;;;;5.02;98.54;94527.00;5053996;28;20211;-84
2023/12/25 04:59:58;;;;;;;0.20;0.20;;;;;;;5.13;98.40;94513.09;5053602;28;20210;-82
2023/12/25 05:02:27;;;;;;;0.30;0.30;;;;;;;4.97;98.48;94509.88;5053578;28;20208;-83
2023/12/25 05:04:54;;;;;;;2.30;1.73;;;;;;;5.17;98.33;94521.38;5053701;28;20676;-83
2023/12/25 05:07:21;;;;;;;1.77;1.10;;;;;;;5.34;98.11;94519.69;5053926;28;20219;-82
2023/12/25 05:09:48;;;;;;;0.30;0.30;;;;;;;5.59;97.13;94515.75;5053475;28;20212;-83
2023/12/25 05:12:15;;;;;;;0.20;0.20;;;;;;;5.60;96.55;94492.34;5053887;28;20262;-82
2023/12/25 05:14:42;;;;;;;0.20;0.20;;;;;;;5.77;96.38;94502.47;5053832;28;20211;-83
2023/12/25 05:17:09;;;;;;;0.22;0.22;;;;;;;5.81;96.00;94503.47;5053380;28;20225;-83
2023/12/25 05:19:37;;;;;;;0.20;0.20;;;;;;;5.81;95.83;94524.97;5053592;28;20212;-84
2023/12/25 05:22:05;;;;;;;0.45;0.45;;;;;;;5.88;95.46;94504.69;5053492;28;20654;-83
2023/12/25 05:24:32;;;;;;;1.48;0.32;;;;;;;5.81;94.94;94527.66;5053404;28;20277;-84
2023/12/25 05:26:59;;;;;;;0.20;0.20;;;;;;;6.02;94.77;94528.84;5053304;28;20555;-84
2023/12/25 05:29:26;;;;;;;0.30;0.30;;;;;;;5.49;95.32;94553.53;5053692;28;20215;-81
2023/12/25 05:31:53;;;;;;;0.20;0.20;;;;;;;5.48;95.26;94530.44;5052838;28;20243;-84
2023/12/25 05:34:20;;;;;;;0.40;0.40;;;;;;;5.30;96.22;94547.44;5052983;28;20314;-84
2023/12/25 05:36:48;;;;;;;0.20;0.20;;;;;;;5.22;97.29;94540.06;5053909;28;20662;-85
2023/12/25 05:39:15;;;;;;;0.20;0.20;;;;;;;5.13;98.19;94523.03;5053310;28;20282;-84
2023/12/25 05:41:42;;;;;;;0.38;0.38;;;;;;;5.02;98.63;94537.75;5053710;28;20211;-84
2023/12/25 05:44:09;;;;;;;0.20;0.20;;;;;;;5.16;98.83;94538.56;5052883;28;20218;-84
2023/12/25 05:46:36;;;;;;;0.68;0.68;;;;;;;5.19;98.74;94511.13;5053374;28;20679;-85
2023/12/25 05:49:03;;;;;;;0.40;0.40;;;;;;;5.30;97.62;94534.03;5053328;28;20261;-84
2023/12/25 05:51:30;;;;;;;0.63;0.63;;;;;;;5.34;97.99;94540.38;5052649;28;20203;-84
2023/12/25 05:53:58;;;;;;;0.20;0.20;;;;;;;5.18;97.50;94553.31;5052561;28;20227;-84
2023/12/25 05:56:25;;;;;;;0.35;0.35;;;;;;;5.09;98.13;94533.56;5052822;28;20685;-84
2023/12/25 05:58:52;;;;;;;0.20;0.20;;;;;;;5.21;98.60;94535.78;5052614;28;20211;-84
2023/12/25 06:01:20;;;;;;;0.60;0.60;;;;;;;5.24;98.35;94529.81;5053525;28;20219;-84
2023/12/25 06:03:47;;;;;;;0.20;0.20;;;;;;;5.17;98.17;94513.31;5039835;28;20203;-84
2023/12/25 06:06:14;;;;;;;0.20;0.20;;;;;;;5.24;98.21;94545.94;5053434;28;20290;-84
2023/12/25 06:08:41;;;;;;;0.28;0.28;;;;;;;5.13;98.21;94537.28;5053643;28;20212;-83
2023/12/25 06:11:09;;;;;;;0.20;0.20;;;;;;;5.20;98.21;94551.09;5053508;28;20231;-84
2023/12/25 06:13:36;;;;;;;0.63;0.63;;;;;;;5.38;97.57;94538.69;5052865;28;20231;-84
2023/12/25 06:16:04;;;;;;;0.20;0.20;;;;;;;5.70;96.22;94564.69;5052990;28;20211;-83
2023/12/25 06:18:31;;;;;;;1.48;1.38;;;;;;;6.01;94.35;94567.63;5052163;28;20210;-84
2023/12/25 06:20:58;;;;;;;5.20;1.55;;;;;;;6.28;92.57;94581.03;5053469;28;20207;-84
2023/12/25 06:23:24;;;;;;;3.95;2.40;;;;;;;6.51;91.38;94597.22;5053579;28;20281;-83
2023/12/25 06:25:51;;;;;;;0.93;0.65;;;;;;;6.60;91.24;94603.47;5053302;28;20203;-84
2023/12/25 06:28:19;;;;;;;0.28;0.28;;;;;;;6.74;91.75;94604.22;5053523;28;20211;-84
2023/12/25 06:30:46;;;;;;;0.35;0.35;;;;;;;6.40;91.85;94594.75;5053270;28;20618;-84
2023/12/25 06:33:13;;;;;;;1.08;0.63;;;;;;;6.26;91.58;94593.97;5053491;28;20220;-84
2023/12/25 06:35:40;;;;;;;0.20;0.20;;;;;;;6.02;92.70;94610.31;5053786;28;20625;-84
2023/12/25 06:38:07;;;;;;;0.20;0.20;;;;;;;6.02;93.62;94598.75;5053891;28;20341;-84
2023/12/25 06:40:34;;;;;;;0.20;0.20;;;;;;;5.90;93.83;94585.03;5053616;28;20308;-84
2023/12/25 06:43:01;;;;;;;0.20;0.20;;;;;;;5.84;94.27;94570.06;5053147;28;20220;-83
2023/12/25 06:45:29;;;;;;;0.38;0.38;;;;;;;5.98;93.44;94555.56;5053710;28;20222;-83
2023/12/25 06:47:56;;;;;;;0.55;0.55;;;;;;;6.10;92.45;94568.50;5054486;28;20215;-85
2023/12/25 06:50:23;;;;;;;0.50;0.50;;;;;;;5.90;93.05;94571.59;5054985;28;20215;-82
2023/12/25 06:52:50;;;;;;;0.30;0.30;;;;;;;5.90;93.67;94585.81;5053028;28;21057;-84
2023/12/25 06:55:16;;;;;;;0.30;0.30;;;;;;;6.00;93.93;94584.84;5053033;28;20215;-85
2023/12/25 06:57:43;;;;;;;0.20;0.20;;;;;;;6.12;93.20;94587.03;5052176;28;20223;-84
2023/12/25 07:00:12;;;;;;;1.45;0.95;;;;;;;6.23;92.56;94583.81;5052951;28;20622;-83
2023/12/25 07:02:40;;;;;;;0.20;0.20;;;;;;;6.21;92.40;94583.31;5052868;28;20203;-83
2023/12/25 07:05:08;;;;;;;0.30;0.30;;;;;;;6.20;92.39;94600.56;5051857;28;20318;-84
2023/12/25 07:07:35;;;;;;;0.28;0.28;;;;;;;6.52;90.80;94612.28;5051849;28;20207;-84
2023/12/25 07:10:02;;;;;;;0.40;0.40;;;;;;;6.80;91.06;94597.66;5051502;28;20219;-85
2023/12/25 07:12:29;;;;;;;0.30;0.30;;;;;;;7.01;90.82;94593.38;5051870;28;20227;-85
2023/12/25 07:14:55;;;;;;;0.47;0.47;;;;;;;7.26;90.60;94599.22;5051774;28;20553;-85
2023/12/25 07:17:22;;;;;;;0.60;0.60;;;;;;;7.36;88.32;94588.22;5052432;28;20235;-85
2023/12/25 07:19:51;;;;;;;0.68;0.68;;;;;;;7.35;87.54;94598.19;5052114;28;20218;-86
2023/12/25 07:22:18;;;;;;;1.25;0.77;;;;;;;7.53;88.61;94603.69;5052380;28;20549;-85
2023/12/25 07:24:45;;;;;;;0.43;0.43;;;;;;;7.68;85.79;94593.28;5052714;28;20230;-86
2023/12/25 07:27:11;;;;;;;0.40;0.40;;;;;;;7.65;84.45;94602.03;5051465;28;20587;-85
2023/12/25 07:29:38;;;;;;;1.65;0.75;;;;;;;7.88;84.09;94593.88;5051726;28;20665;-85
2023/12/25 07:32:06;;;;;;;0.20;0.20;;;;;;;8.08;82.83;94598.69;5051004;28;20247;-84
2023/12/25 07:34:33;;;;;;;0.30;0.30;;;;;;;8.12;82.35;94605.88;5051603;28;20224;-84
2023/12/25 07:37:01;;;;;;;0.25;0.25;;;;;;;8.17;81.31;94600.34;5052206;28;20294;-86
2023/12/25 07:39:29;;;;;;;0.20;0.20;;;;;;;8.38;80.89;94603.28;5052535;28;20207;-85
2023/12/25 07:41:55;;;;;;;0.30;0.30;;;;;;;8.52;80.12;94582.34;5052487;28;20237;-85
2023/12/25 07:44:24;;;;;;;0.20;0.20;;;;;;;8.62;78.71;94596.63;5052042;28;20219;-85
2023/12/25 07:46:50;;;;;;;0.70;0.70;;;;;;;8.47;78.91;94614.88;5051551;28;20609;-85
2023/12/25 07:49:19;;;;;;;0.20;0.20;;;;;;;8.72;78.46;94626.84;5051820;28;20215;-86
2023/12/25 07:51:46;;;;;;;0.20;0.20;;;;;;;8.70;77.64;94609.38;5051406;28;20207;-85
2023/12/25 07:54:14;;;;;;;0.50;0.50;;;;;;;8.86;78.48;94618.59;5052547;28;20286;-84
2023/12/25 07:56:40;;;;;;;0.20;0.20;;;;;;;8.97;78.05;94609.06;5052089;28;20290;-85
2023/12/25 07:59:07;;;;;;;0.20;0.20;;;;;;;9.12;76.95;94619.41;5050697;28;20223;-84
2023/12/25 08:01:34;;;;;;;0.82;0.75;;;;;;;9.25;75.47;94626.56;5051538;28;20203;-84
2023/12/25 08:04:02;;;;;;;0.50;0.50;;;;;;;9.39;75.36;94620.19;5051385;28;20219;-84
2023/12/25 08:06:29;;;;;;;0.20;0.20;;;;;;;9.52;74.43;94609.19;5051160;28;20702;-85
2023/12/25 08:08:56;;;;;;;0.40;0.40;;;;;;;9.64;74.33;94608.53;5052747;28;20284;-84
2023/12/25 08:11:25;;;;;;;0.30;0.30;;;;;;;9.63;73.05;94588.81;5055542;28;20219;-85
2023/12/25 08:13:54;;;;;;;0.30;0.30;;;;;;;9.60;72.87;94615.69;5055423;28;20219;-85
2023/12/25 08:16:21;;;;;;;0.38;0.38;;;;;;;9.60;73.04;94626.50;5055104;28;20207;-85
2023/12/25 08:18:48;;;;;;;0.50;0.50;;;;;;;9.69;73.36;94623.81;5055539;28;20265;-82
2023/12/25 08:21:16;;;;;;;0.20;0.20;;;;;;;9.67;72.26;94632.22;5055106;28;20228;-84
2023/12/25 08:23:43;;;;;;;0.85;0.43;;;;;;;9.71;72.12;94622.34;5055143;28;20203;-83
2023/12/25 08:26:09;;;;;;;0.25;0.25;;;;;;;9.77;72.08;94626.47;5055322;28;20253;-85
2023/12/25 08:28:40;;;;;;;4.13;1.50;;;;;;;10.09;72.98;94610.78;5055191;28;20203;-85
2023/12/25 08:31:07;;;;;;;0.57;0.57;;;;;;;10.11;71.17;94606.66;5054614;28;20285;-86
2023/12/25 08:33:35;;;;;;;0.30;0.30;;;;;;;10.08;70.78;94603.78;5055433;28;20246;-85
2023/12/25 08:36:02;;;;;;;0.20;0.20;;;;;;;10.02;70.28;94613.19;5055549;28;20558;-85
2023/12/25 08:38:29;;;;;;;0.40;0.40;;;;;;;10.06;70.09;94627.66;5054214;28;20302;-86
2023/12/25 08:40:57;;;;;;;0.20;0.20;;;;;;;10.08;70.38;94614.59;5053840;28;20212;-84
2023/12/25 08:43:23;;;;;;;0.20;0.20;;;;;;;10.13;69.49;94622.53;5055829;28;20219;-85
2023/12/25 08:45:52;;;;;;;0.40;0.38;;;;;;;10.33;69.53;94617.22;5054490;28;20208;-85
2023/12/25 08:48:19;;;;;;;0.20;0.20;;;;;;;10.33;68.81;94616.44;5054503;28;20579;-84
2023/12/25 08:50:45;;;;;;;0.52;0.52;;;;;;;10.50;68.72;94605.53;5054585;28;20234;-85
2023/12/25 08:53:12;;;;;;;0.40;0.40;;;;;;;10.61;67.89;94593.19;5054350;28;20239;-86
2023/12/25 08:55:39;;;;;;;0.30;0.30;;;;;;;10.80;67.14;94592.72;5041011;28;20211;-87
2023/12/25 08:58:06;;;;;;;0.30;0.30;;;;;;;10.73;66.96;94608.72;5054319;28;20212;-86
2023/12/25 09:00:33;;;;;;;0.38;0.38;;;;;;;10.80;66.98;94595.44;5054934;28;20219;-86
2023/12/25 09:03:02;;;;;;;2.25;1.30;;;;;;;10.99;66.45;94584.16;5054722;28;20725;-85
2023/12/25 09:05:29;;;;;;;1.35;0.82;;;;;;;11.09;66.76;94575.59;5055174;28;20211;-86
2023/12/25 09:07:56;;;;;;;3.95;1.27;;;;;;;10.97;66.51;94573.63;5054709;28;20219;-83
2023/12/25 09:10:22;;;;;;;0.20;0.20;;;;;;;11.18;65.88;94581.78;5054808;28;20208;-84
2023/12/25 09:12:50;;;;;;;0.50;0.50;;;;;;;11.14;65.52;94575.41;5053928;28;20211;-86
2023/12/25 09:15:19;;;;;;;1.20;1.00;;;;;;;11.31;65.09;94583.41;5054397;28;20212;-85
2023/12/25 09:17:50;;;;;;;0.38;0.38;;;;;;;11.48;64.81;94579.72;5054961;28;20211;-85
2023/12/25 09:20:18;;;;;;;0.30;0.30;;;;;;;11.62;64.31;94580.22;5053695;28;20212;-86
2023/12/25 09:22:45;;;;;;;0.85;0.80;;;;;;;11.56;64.32;94569.94;5054561;28;20211;-85
2023/12/25 09:25:12;;;;;;;0.38;0.38;;;;;;;11.58;63.52;94556.81;5053401;28;20238;-85
2023/12/25 09:27:39;;;;;;;0.22;0.22;;;;;;;11.68;62.79;94550.97;5053980;28;20247;-84
2023/12/25 09:30:08;;;;;;;0.75;0.68;;;;;;;11.80;62.61;94540.16;5054572;28;20234;-86
2023/12/25 09:32:35;;;;;;;0.68;0.57;;;;;;;11.97;62.08;94552.75;5054769;28;20282;-85
2023/12/25 09:35:02;;;;;;;0.20;0.20;;;;;;;12.23;61.46;94557.84;5053910;28;20228;-85
2023/12/25 09:37:30;;;;;;;0.40;0.40;;;;;;;12.32;60.12;94558.50;5053908;28;20235;-84
2023/12/25 09:39:57;;;;;;;0.82;0.82;;;;;;;12.09;60.80;94548.09;5054609;28;20211;-85
2023/12/25 09:42:24;;;;;;;0.40;0.40;;;;;;;12.07;60.67;94563.94;5054745;28;20571;-84
2023/12/25 09:44:53;;;;;;;0.63;0.63;;;;;;;12.05;60.39;94560.75;5053380;28;20211;-85
2023/12/25 09:47:20;;;;;;;2.58;1.52;;;;;;;12.20;60.32;94559.31;5054117;28;20709;-86
2023/12/25 09:49:47;;;;;;;1.48;1.38;;;;;;;12.32;59.92;94558.50;5054122;28;20211;-85
2023/12/25 09:52:14;;;;;;;3.08;1.08;;;;;;;12.29;60.82;94556.50;5053946;28;20294;-86
2023/12/25 09:54:44;;;;;;;0.20;0.20;;;;;;;12.53;60.44;94544.81;5054120;28;20690;-85
2023/12/25 09:57:13;;;;;;;0.30;0.30;;;;;;;12.69;59.18;94551.94;5054011;28;20217;-85
2023/12/25 09:59:42;;;;;;;1.02;0.93;;;;;;;12.97;59.17;94551.19;5054590;28;20295;-86
2023/12/25 10:02:10;;;;;;;0.68;0.38;;;;;;;12.98;58.40;94547.34;5044468;28;20263;-86
2023/12/25 10:04:39;;;;;;;0.45;0.45;;;;;;;13.13;58.08;94543.88;5054127;28;20204;-85
2023/12/25 10:07:05;;;;;;;0.30;0.30;;;;;;;13.27;57.54;94538.84;5053992;28;20255;-86
2023/12/25 10:09:33;;;;;;;0.85;0.52;;;;;;;13.17;57.47;94539.34;5053732;28;20235;-85
2023/12/25 10:12:01;;;;;;;0.50;0.50;;;;;;;13.00;57.35;94545.03;5053257;28;20215;-85
2023/12/25 10:14:29;;;;;;;0.30;0.30;;;;;;;12.77;57.67;94548.28;5053715;28;20617;-86
2023/12/25 10:16:57;;;;;;;0.30;0.30;;;;;;;12.98;57.25;94531.81;5054024;28;20292;-86
2023/12/25 10:19:24;;;;;;;1.70;1.00;;;;;;;13.04;56.51;94529.63;5053363;28;20238;-84
2023/12/25 10:21:52;;;;;;;2.08;1.38;;;;;;;13.15;56.53;94530.75;5054563;28;20203;-86
2023/12/25 10:24:19;;;;;;;0.93;0.65;;;;;;;13.19;56.41;94531.66;5054440;28;20948;-86
2023/12/25 10:26:46;;;;;;;0.32;0.32;;;;;;;13.29;55.96;94531.16;5054076;28;20203;-87
2023/12/25 10:29:15;;;;;;;0.60;0.60;;;;;;;13.35;55.85;94524.31;5056407;28;20237;-86
2023/12/25 10:31:43;;;;;;;1.10;1.10;;;;;;;13.13;55.31;94516.66;5053982;28;20304;-85
2023/12/25 10:34:16;;;;;;;0.20;0.20;;;;;;;13.17;56.32;94523.03;5055013;28;20763;-84
2023/12/25 10:36:47;;;;;;;0.20;0.20;;;;;;;13.20;56.85;94513.41;5054766;28;20243;-84
2023/12/25 10:39:14;;;;;;;0.47;0.40;;;;;;;13.45;56.04;94499.31;5055104;28;20298;-85
2023/12/25 10:41:42;;;;;;;1.77;0.90;;;;;;;13.63;56.50;94499.81;5057889;28;20253;-86
2023/12/25 10:44:09;;;;;;;0.40;0.40;;;;;;;13.71;54.87;94492.59;5055355;28;20645;-85
2023/12/25 10:46:37;;;;;;;0.30;0.30;;;;;;;13.80;53.88;94496.72;5054444;28;20253;-87
2023/12/25 10:49:06;;;;;;;0.82;0.82;;;;;;;13.62;53.19;94494.69;5053837;28;20274;-81
2023/12/25 10:51:35;;;;;;;0.20;0.20;;;;;;;13.47;53.35;94505.22;5053588;28;20199;-83
2023/12/25 10:54:04;;;;;;;1.00;0.80;;;;;;;13.57;53.07;94484.06;5041142;28;20250;-84
2023/12/25 10:56:33;;;;;;;0.57;0.57;;;;;;;13.69;52.48;94489.44;5053931;28;20208;-85
2023/12/25 10:59:06;;;;;;;3.60;1.55;;;;;;;13.74;52.69;94492.69;5053458;28;20239;-86
2023/12/25 11:01:34;;;;;;;1.50;1.10;;;;;;;13.75;52.47;94498.94;5053823;28;20583;-86
2023/12/25 11:04:03;;;;;;;3.38;1.13;;;;;;;13.82;52.65;94477.31;5054080;28;20203;-85
2023/12/25 11:06:30;;;;;;;1.65;1.10;;;;;;;14.28;52.58;94491.25;5055779;28;20265;-86
2023/12/25 11:08:58;;;;;;;2.05;1.20;;;;;;;14.38;51.90;94487.97;5057792;28;20257;-86
2023/12/25 11:11:25;;;;;;;2.47;1.05;;;;;;;14.47;52.40;94494.06;5053875;28;20261;-85
2023/12/25 11:13:52;;;;;;;2.15;1.13;;;;;;;14.58;51.60;94486.91;5036008;28;20691;-86
2023/12/25 11:16:20;;;;;;;0.98;0.82;;;;;;;14.52;51.58;94485.59;5055450;28;20550;-85
2023/12/25 11:18:46;;;;;;;2.08;1.20;;;;;;;14.57;51.89;94474.44;5055428;28;20211;-84
2023/12/25 11:21:19;;;;;;;3.00;1.02;;;;;;;14.72;51.83;94481.00;5058155;28;20280;-85
2023/12/25 11:23:48;;;;;;;6.75;1.40;;;;;;;14.90;51.37;94482.13;5061016;28;20699;-85
2023/12/25 11:26:16;;;;;;;4.72;1.35;;;;;;;15.01;50.74;94479.66;5061931;28;20263;-87
2023/12/25 11:28:55;;;;;;;1.88;1.45;;;;;;;14.76;50.70;94477.16;5057649;28;20319;-85
2023/12/25 11:31:23;;;;;;;1.08;0.85;;;;;;;14.89;51.04;94475.13;5045846;28;20645;-85
2023/12/25 11:33:51;;;;;;;2.58;1.27;;;;;;;14.96;51.03;94479.94;5059954;28;20227;-86
2023/12/25 11:36:20;;;;;;;2.50;1.05;;;;;;;15.07;51.24;94473.53;5061032;28;20302;-85
2023/12/25 11:38:54;;;;;;;1.95;1.08;;;;;;;15.08;50.55;94474.31;5058751;28;20226;-87